createdAt,value
2023-03-31T00:02:14.855Z,93.99
2023-03-31T00:05:09.051Z,94.16
2023-03-31T00:07:56.579Z,93.64
2023-03-31T00:13:47.157Z,93.36
2023-03-31T00:16:32.586Z,93.47
2023-03-31T00:19:28.157Z,93.16
2023-03-31T00:22:18.081Z,93.14
2023-03-31T00:24:45.651Z,93.40
2023-03-31T00:27:13.429Z,92.97
2023-03-31T00:29:43.786Z,92.85
2023-03-31T00:32:10.986Z,93.09
2023-03-31T00:34:38.767Z,93.31
2023-03-31T00:37:05.708Z,92.98
2023-03-31T00:39:35.508Z,93.07
2023-03-31T00:42:03.997Z,93.57
2023-03-31T00:44:33.766Z,93.46
2023-03-31T00:47:24.486Z,92.99
2023-03-31T00:49:59.909Z,93.26
2023-03-31T00:52:35.812Z,93.46
2023-03-31T00:55:09.221Z,93.82
2023-03-31T00:57:41.827Z,94.09
2023-03-31T01:00:19.210Z,94.11
2023-03-31T01:02:59.892Z,93.80
2023-03-31T01:05:32.974Z,93.73
2023-03-31T01:08:31.454Z,94.09
2023-03-31T01:11:23.622Z,94.16
2023-03-31T01:14:10.107Z,94.36
2023-03-31T01:16:50.820Z,93.93
2023-03-31T01:19:44.760Z,94.12
2023-03-31T01:22:58.124Z,94.12
2023-03-31T01:26:01.685Z,93.91
2023-03-31T01:29:07.091Z,93.97
2023-03-31T01:32:02.119Z,93.89
2023-03-31T01:34:58.125Z,94.19
2023-03-31T01:37:48.910Z,93.80
2023-03-31T01:40:24.856Z,94.35
2023-03-31T01:43:18.806Z,93.62
2023-03-31T01:45:51.778Z,93.83
2023-03-31T01:48:30.385Z,93.66
2023-03-31T01:51:10.595Z,94.04
2023-03-31T01:54:02.251Z,93.57
2023-03-31T01:56:34.500Z,94.31
2023-03-31T01:59:23.808Z,94.09
2023-03-31T02:01:57.275Z,93.77
2023-03-31T02:04:36.925Z,94.04
2023-03-31T02:07:12.301Z,94.48
2023-03-31T02:09:43.990Z,94.63
2023-03-31T02:12:12.764Z,95.06
2023-03-31T02:14:48.093Z,95.06
2023-03-31T02:17:22.651Z,95.28
2023-03-31T02:19:53.077Z,95.60
2023-03-31T02:22:24.124Z,95.62
2023-03-31T02:24:53.790Z,95.14
2023-03-31T02:27:31.840Z,95.38
2023-03-31T02:29:59.868Z,96.08
2023-03-31T02:32:38.110Z,95.98
2023-03-31T02:35:07.433Z,95.27
2023-03-31T02:37:34.869Z,95.44
2023-03-31T02:40:10.663Z,95.58
2023-03-31T02:42:40.480Z,95.48
2023-03-31T02:45:28.508Z,95.62
2023-03-31T02:47:55.899Z,96.06
2023-03-31T02:50:33.297Z,95.03
2023-03-31T02:53:16.444Z,95.40
2023-03-31T02:55:58.402Z,95.50
2023-03-31T02:58:30.775Z,95.00
2023-03-31T03:01:29.968Z,95.33
2023-03-31T03:04:25.944Z,95.32
2023-03-31T03:07:10.876Z,95.60
2023-03-31T03:10:02.508Z,95.30
2023-03-31T03:12:41.676Z,94.99
2023-03-31T03:15:14.634Z,95.23
2023-03-31T03:17:45.824Z,94.75
2023-03-31T03:20:14.545Z,94.53
2023-03-31T03:22:41.441Z,95.02
2023-03-31T03:25:11.780Z,95.20
2023-03-31T03:27:39.544Z,95.12
2023-03-31T03:30:09.272Z,94.40
2023-03-31T03:32:36.218Z,94.82
2023-03-31T03:35:04.757Z,94.38
2023-03-31T03:37:32.226Z,94.71
2023-03-31T03:39:59.208Z,94.49
2023-03-31T03:42:26.111Z,94.41
2023-03-31T03:44:53.093Z,94.74
2023-03-31T03:47:20.020Z,94.49
2023-03-31T03:49:48.796Z,94.78
2023-03-31T03:52:16.624Z,94.23
2023-03-31T03:54:43.552Z,94.78
2023-03-31T03:57:11.144Z,95.06
2023-03-31T03:59:38.084Z,94.96
2023-03-31T04:02:05.036Z,94.60
2023-03-31T04:04:32.049Z,94.67
2023-03-31T04:06:58.951Z,94.18
2023-03-31T04:09:26.244Z,94.79
2023-03-31T04:11:53.165Z,94.90
2023-03-31T04:14:20.067Z,94.86
2023-03-31T04:16:47.121Z,95.10
2023-03-31T04:19:17.799Z,94.46
2023-03-31T04:21:59.022Z,94.25
2023-03-31T04:24:31.007Z,94.25
2023-03-31T04:26:58.654Z,94.63
2023-03-31T04:29:26.980Z,94.92
2023-03-31T04:31:59.090Z,94.39
2023-03-31T04:34:35.556Z,94.98
2023-03-31T04:37:03.672Z,94.94
2023-03-31T04:39:31.401Z,94.69
2023-03-31T04:41:59.731Z,94.38
2023-03-31T04:44:27.460Z,94.43
2023-03-31T04:46:55.369Z,94.10
2023-03-31T04:49:22.668Z,94.19
2023-03-31T04:51:49.798Z,93.98
2023-03-31T04:54:16.822Z,94.43
2023-03-31T04:56:43.915Z,95.03
2023-03-31T04:59:11.346Z,94.56
2023-03-31T05:01:38.256Z,94.59
2023-03-31T05:04:05.806Z,95.18
2023-03-31T05:06:33.381Z,95.14
2023-03-31T05:09:00.627Z,94.55
2023-03-31T05:11:27.660Z,94.64
2023-03-31T05:13:54.861Z,94.97
2023-03-31T05:16:22.143Z,95.11
2023-03-31T05:18:49.063Z,95.17
2023-03-31T05:21:18.981Z,94.83
2023-03-31T05:23:46.830Z,94.89
2023-03-31T05:26:14.294Z,94.32
2023-03-31T05:28:42.353Z,94.92
2023-03-31T05:31:11.449Z,94.50
2023-03-31T05:33:42.297Z,94.81
2023-03-31T05:36:15.632Z,94.22
2023-03-31T05:38:43.485Z,93.69
2023-03-31T05:41:12.037Z,94.08
2023-03-31T05:43:40.080Z,93.61
2023-03-31T05:46:08.006Z,93.71
2023-03-31T05:48:35.800Z,93.26
2023-03-31T05:51:02.811Z,92.63
2023-03-31T05:53:30.247Z,92.08
2023-03-31T05:56:06.561Z,91.57
2023-03-31T05:58:37.462Z,91.81
2023-03-31T06:01:14.326Z,92.16
2023-03-31T06:03:42.904Z,91.33
2023-03-31T06:06:13.329Z,90.30
2023-03-31T06:08:40.474Z,90.57
2023-03-31T06:11:09.918Z,89.71
2023-03-31T06:13:37.747Z,89.39
2023-03-31T06:16:06.025Z,89.26
2023-03-31T06:18:35.307Z,87.38
2023-03-31T06:21:02.772Z,86.42
2023-03-31T06:23:29.820Z,86.39
2023-03-31T06:26:04.398Z,85.60
2023-03-31T06:28:31.476Z,82.95
2023-03-31T06:31:07.261Z,78.89
2023-03-31T06:33:35.012Z,76.67
2023-03-31T06:36:04.461Z,75.30
2023-03-31T06:38:32.020Z,74.06
2023-03-31T06:40:58.911Z,73.19
2023-03-31T06:43:25.884Z,73.19
2023-03-31T06:45:56.554Z,74.96
2023-03-31T06:48:25.489Z,74.86
2023-03-31T06:50:54.871Z,74.26
2023-03-31T06:53:22.474Z,73.18
2023-03-31T06:55:49.340Z,72.02
2023-03-31T06:58:16.240Z,71.74
2023-03-31T07:00:44.760Z,70.64
2023-03-31T07:03:12.544Z,72.45
2023-03-31T07:05:39.944Z,72.58
2023-03-31T07:08:07.021Z,72.66
2023-03-31T07:10:34.157Z,73.58
2023-03-31T07:13:02.314Z,75.14
2023-03-31T07:15:30.830Z,73.85
2023-03-31T07:18:02.420Z,75.64
2023-03-31T07:20:30.869Z,74.56
2023-03-31T07:22:57.825Z,73.26
2023-03-31T07:25:25.155Z,74.54
2023-03-31T07:27:52.102Z,74.66
2023-03-31T07:30:20.477Z,74.00
2023-03-31T07:32:51.422Z,72.64
2023-03-31T07:35:19.468Z,72.49
2023-03-31T07:37:48.715Z,72.65
2023-03-31T07:40:19.172Z,71.36
2023-03-31T07:42:49.252Z,71.90
2023-03-31T07:45:17.334Z,70.36
2023-03-31T08:34:26.068Z,68.08
2023-03-31T08:36:53.152Z,66.90
2023-03-31T08:39:20.178Z,66.30
2023-03-31T08:41:59.248Z,65.92
2023-03-31T08:44:37.786Z,64.70
2023-03-31T08:47:07.969Z,64.86
2023-03-31T08:49:48.271Z,63.32
2023-03-31T08:52:23.672Z,62.08
2023-03-31T08:54:56.916Z,61.09
2023-03-31T08:57:46.673Z,61.70
2023-03-31T09:00:18.755Z,62.12
2023-03-31T09:03:00.656Z,61.25
2023-03-31T09:05:58.927Z,63.45
2023-03-31T09:08:42.414Z,62.68
2023-03-31T09:11:45.529Z,61.87
2023-03-31T09:14:43.241Z,61.55
2023-03-31T09:17:24.397Z,61.66
2023-03-31T09:19:56.958Z,61.15
2023-03-31T09:22:30.700Z,59.73
2023-03-31T09:25:26.792Z,59.12
2023-03-31T09:27:58.177Z,59.60
2023-03-31T09:30:34.920Z,60.04
2023-03-31T09:33:24.196Z,59.54
2023-03-31T09:35:52.236Z,59.74
2023-03-31T09:38:19.337Z,58.78
2023-03-31T09:40:46.348Z,60.98
2023-03-31T09:43:23.949Z,59.34
2023-03-31T09:46:07.825Z,59.90
2023-03-31T09:48:36.778Z,60.76
2023-03-31T09:51:19.217Z,57.81
2023-03-31T09:54:18.456Z,57.47
2023-03-31T09:56:53.261Z,59.32
2023-03-31T09:59:31.803Z,57.92
2023-03-31T10:02:03.255Z,60.67
2023-03-31T10:04:35.727Z,57.52
2023-03-31T10:07:05.757Z,57.33
2023-03-31T10:09:34.589Z,56.59
2023-03-31T10:12:16.492Z,56.87
2023-03-31T10:14:49.116Z,55.17
2023-03-31T10:17:18.481Z,55.34
2023-03-31T10:19:54.778Z,56.40
2023-03-31T10:22:21.796Z,58.07
2023-03-31T10:24:50.727Z,57.71
2023-03-31T10:27:28.252Z,59.00
2023-03-31T10:29:59.710Z,59.83
2023-03-31T10:32:30.170Z,59.68
2023-03-31T10:34:59.154Z,59.79
2023-03-31T10:37:28.866Z,59.95
2023-03-31T10:40:15.085Z,59.20
2023-03-31T10:42:46.645Z,60.83
2023-03-31T10:45:37.990Z,60.20
2023-03-31T10:48:07.321Z,60.91
2023-03-31T10:50:36.812Z,61.61
2023-03-31T10:53:13.606Z,61.74
2023-03-31T10:56:03.457Z,61.58
2023-03-31T10:58:52.010Z,61.30
2023-03-31T11:01:29.086Z,62.15
2023-03-31T11:03:57.301Z,61.53
2023-03-31T11:06:46.153Z,61.62
2023-03-31T11:09:25.287Z,61.12
2023-03-31T11:12:10.652Z,61.37
2023-03-31T11:15:08.127Z,62.13
2023-03-31T11:18:07.399Z,63.59
2023-03-31T11:21:11.682Z,63.25
2023-03-31T11:23:43.177Z,63.37
2023-03-31T11:26:31.967Z,62.92
2023-03-31T11:29:26.407Z,63.19
2023-03-31T11:31:59.499Z,62.43
2023-03-31T11:34:47.528Z,62.38
2023-03-31T11:37:41.894Z,62.91
2023-03-31T11:40:39.064Z,62.93
2023-03-31T11:43:11.477Z,62.01
2023-03-31T11:45:53.579Z,61.83
2023-03-31T11:48:46.757Z,60.52
2023-03-31T11:51:27.214Z,59.83
2023-03-31T11:53:56.588Z,60.34
2023-03-31T11:56:27.350Z,59.34
2023-03-31T11:58:58.226Z,59.01
2023-03-31T12:01:36.603Z,57.36
2023-03-31T12:04:09.914Z,58.60
2023-03-31T12:06:42.034Z,58.59
2023-03-31T12:09:24.142Z,57.51
2023-03-31T12:12:01.304Z,57.93
2023-03-31T12:14:35.114Z,58.19
2023-03-31T12:17:10.875Z,57.84
2023-03-31T12:20:10.880Z,57.54
2023-03-31T12:22:43.551Z,58.52
2023-03-31T12:25:23.232Z,55.37
2023-03-31T12:27:51.772Z,56.12
2023-03-31T12:30:34.721Z,53.15
2023-03-31T12:33:18.809Z,53.13
2023-03-31T12:35:59.831Z,52.65
2023-03-31T12:38:44.758Z,53.60
2023-03-31T12:41:45.963Z,51.76
2023-03-31T12:44:31.169Z,52.42
2023-03-31T12:47:06.798Z,51.90
2023-03-31T12:49:42.395Z,50.96
2023-03-31T12:52:19.516Z,51.49
2023-03-31T12:55:11.115Z,52.58
2023-03-31T12:57:38.208Z,52.60
2023-03-31T13:00:14.022Z,53.82
2023-03-31T13:02:41.574Z,53.72
2023-03-31T13:05:36.572Z,55.12
2023-03-31T13:08:08.697Z,60.08
2023-03-31T13:10:59.691Z,60.85
2023-03-31T13:13:27.182Z,61.94
2023-03-31T13:15:57.170Z,63.84
2023-03-31T13:18:24.541Z,63.47
2023-03-31T13:21:06.414Z,60.59
2023-03-31T13:23:37.954Z,60.49
2023-03-31T13:26:07.156Z,63.29
2023-03-31T13:28:40.218Z,66.84
2023-03-31T13:31:10.616Z,67.90
2023-03-31T13:33:58.398Z,67.10
2023-03-31T13:36:34.416Z,67.39
2023-03-31T13:39:13.340Z,68.96
2023-03-31T13:41:49.156Z,69.03
2023-03-31T13:44:38.606Z,63.82
2023-03-31T13:47:20.223Z,61.70
2023-03-31T13:50:16.697Z,60.47
2023-03-31T13:53:11.544Z,58.89
2023-03-31T13:56:12.130Z,57.63
2023-03-31T13:59:11.524Z,56.58
2023-03-31T14:02:16.074Z,55.64
2023-03-31T14:04:58.688Z,56.72
2023-03-31T14:07:51.164Z,58.35
2023-03-31T14:10:36.168Z,58.45
2023-03-31T14:13:20.688Z,57.78
2023-03-31T14:15:57.232Z,59.26
2023-03-31T14:18:36.568Z,60.67
2023-03-31T14:21:29.282Z,62.62
2023-03-31T14:24:04.861Z,64.06
2023-03-31T14:26:37.442Z,66.66
2023-03-31T14:29:27.563Z,67.95
2023-03-31T14:32:07.519Z,68.44
2023-03-31T14:34:43.317Z,70.01
2023-03-31T14:37:14.133Z,71.20
2023-03-31T14:39:44.840Z,71.29
2023-03-31T14:42:21.903Z,71.04
2023-03-31T14:44:49.969Z,71.73
2023-03-31T14:47:22.467Z,73.22
2023-03-31T14:50:00.478Z,72.59
2023-03-31T14:52:30.601Z,72.08
2023-03-31T14:54:57.538Z,73.75
2023-03-31T14:57:31.689Z,73.82
2023-03-31T14:59:59.829Z,74.37
2023-03-31T15:02:47.095Z,73.75
2023-03-31T15:05:37.889Z,73.63
2023-03-31T15:08:13.895Z,74.58
2023-03-31T15:10:46.276Z,74.34
2023-03-31T15:13:20.911Z,75.39
2023-03-31T15:15:47.828Z,74.58
2023-03-31T15:18:16.547Z,75.55
2023-03-31T15:20:45.640Z,74.73
2023-03-31T15:23:32.887Z,74.78
2023-03-31T15:26:08.370Z,74.71
2023-03-31T15:28:51.487Z,74.40
2023-03-31T15:31:19.058Z,75.44
2023-03-31T15:33:47.499Z,75.65
2023-03-31T15:36:15.044Z,78.28
2023-03-31T15:38:43.090Z,78.76
2023-03-31T15:41:14.905Z,79.19
2023-03-31T15:43:42.326Z,80.22
2023-03-31T15:46:19.487Z,81.35
2023-03-31T15:48:55.083Z,81.47
2023-03-31T15:51:26.233Z,81.66
2023-03-31T15:53:54.912Z,81.94
2023-03-31T15:56:45.724Z,81.04
2023-03-31T15:59:33.763Z,80.88
2023-03-31T16:02:06.130Z,80.28
2023-03-31T16:04:33.673Z,79.00
2023-03-31T16:07:08.465Z,79.76
2023-03-31T16:09:48.461Z,79.50
2023-03-31T16:12:24.054Z,79.00
2023-03-31T16:15:02.298Z,78.26
2023-03-31T16:17:32.849Z,78.96
2023-03-31T16:20:11.363Z,78.64
2023-03-31T16:22:43.879Z,78.81
2023-03-31T16:25:17.818Z,78.78
2023-03-31T16:27:48.860Z,78.93
2023-03-31T16:30:42.659Z,78.79
2023-03-31T16:33:18.770Z,79.20
2023-03-31T16:35:49.720Z,78.59
2023-03-31T16:38:17.370Z,78.45
2023-03-31T16:40:49.982Z,78.48
2023-03-31T16:43:21.430Z,77.83
2023-03-31T16:45:57.076Z,77.66
2023-03-31T16:48:26.550Z,77.68
2023-03-31T16:50:58.516Z,76.98
2023-03-31T16:53:28.069Z,77.29
2023-03-31T16:55:56.466Z,77.24
2023-03-31T16:58:24.479Z,77.06
2023-03-31T17:00:52.215Z,76.28
2023-03-31T17:03:19.527Z,77.61
2023-03-31T17:05:50.663Z,77.55
2023-03-31T17:08:17.673Z,75.85
2023-03-31T17:10:55.718Z,76.14
2023-03-31T17:13:22.761Z,77.24
2023-03-31T17:15:52.096Z,76.29
2023-03-31T17:18:23.092Z,76.82
2023-03-31T17:20:50.168Z,76.94
2023-03-31T17:23:17.091Z,77.25
2023-03-31T17:25:50.725Z,78.13
2023-03-31T17:28:18.721Z,77.86
2023-03-31T17:30:48.186Z,77.90
2023-03-31T17:33:16.472Z,78.48
2023-03-31T17:35:44.195Z,78.74
2023-03-31T17:38:14.546Z,78.83
2023-03-31T17:40:41.686Z,78.90
2023-03-31T17:43:08.744Z,79.45
2023-03-31T17:45:35.773Z,79.38
2023-03-31T17:48:03.319Z,79.22
2023-03-31T17:50:30.432Z,79.64
2023-03-31T17:52:58.638Z,79.32
2023-03-31T17:55:25.624Z,79.69
2023-03-31T17:57:52.621Z,80.78
2023-03-31T18:00:19.994Z,80.50
2023-03-31T18:02:47.173Z,81.66
2023-03-31T18:05:15.865Z,82.62
2023-03-31T18:07:44.830Z,84.82
2023-03-31T18:10:12.286Z,82.45
2023-03-31T18:12:39.641Z,82.74
2023-03-31T18:15:07.481Z,83.59
2023-03-31T18:17:34.488Z,83.92
2023-03-31T18:20:01.529Z,83.56
2023-03-31T18:22:29.060Z,84.19
2023-03-31T18:24:56.815Z,83.68
2023-03-31T18:27:25.211Z,83.57
2023-03-31T18:29:52.607Z,83.39
2023-03-31T18:32:20.224Z,83.22
2023-03-31T18:34:47.360Z,83.36
2023-03-31T18:37:14.833Z,84.87
2023-03-31T18:39:42.371Z,84.28
2023-03-31T18:42:09.313Z,84.27
2023-03-31T18:44:36.528Z,82.93
2023-03-31T18:47:03.593Z,83.81
2023-03-31T18:49:30.768Z,84.01
2023-03-31T18:51:59.038Z,85.40
2023-03-31T18:54:26.293Z,85.28
2023-03-31T18:56:53.247Z,85.08
2023-03-31T18:59:20.283Z,85.26
2023-03-31T19:01:47.259Z,84.25
2023-03-31T19:04:14.402Z,85.59
2023-03-31T19:06:41.364Z,86.79
2023-03-31T19:09:08.492Z,86.79
2023-03-31T19:11:35.508Z,85.78
2023-03-31T19:14:02.922Z,86.76
2023-03-31T19:16:29.977Z,88.64
2023-03-31T19:18:57.176Z,88.60
2023-03-31T19:21:24.850Z,89.04
2023-03-31T19:23:51.909Z,88.37
2023-03-31T19:26:19.978Z,88.09
2023-03-31T19:28:48.458Z,88.94
2023-03-31T19:31:15.904Z,88.99
2023-03-31T19:33:43.297Z,89.51
2023-03-31T19:36:10.233Z,89.31
2023-03-31T19:38:37.272Z,88.54
2023-03-31T19:41:07.846Z,89.37
2023-03-31T19:43:35.259Z,89.90
2023-03-31T19:46:02.461Z,90.87
2023-03-31T19:48:32.393Z,90.67
2023-03-31T19:51:01.898Z,91.66
2023-03-31T19:53:28.930Z,91.88
2023-03-31T19:55:57.821Z,91.39
2023-03-31T19:58:25.702Z,92.02
2023-03-31T20:00:54.606Z,91.30
2023-03-31T20:03:23.698Z,92.85
2023-03-31T20:05:52.148Z,91.88
2023-03-31T20:08:19.132Z,92.32
2023-03-31T20:10:46.261Z,92.67
2023-03-31T20:13:13.268Z,92.61
2023-03-31T20:15:41.574Z,92.82
2023-03-31T20:18:08.713Z,92.25
2023-03-31T20:20:35.887Z,91.74
2023-03-31T20:23:04.074Z,91.77
2023-03-31T20:25:31.228Z,91.82
2023-03-31T20:27:58.378Z,90.53
2023-03-31T20:30:25.318Z,88.56
2023-03-31T20:32:52.366Z,88.39
2023-03-31T20:35:19.391Z,87.17
2023-03-31T20:37:46.424Z,85.86
2023-03-31T20:40:13.443Z,85.33
2023-03-31T20:42:40.335Z,84.31
2023-03-31T20:45:07.968Z,83.55
2023-03-31T20:47:59.658Z,83.31
2023-03-31T20:50:26.660Z,82.66
2023-03-31T20:52:53.523Z,82.39
2023-03-31T20:55:20.488Z,82.09
2023-03-31T20:57:48.112Z,81.58
2023-03-31T21:00:15.770Z,81.59
2023-03-31T21:02:43.239Z,81.80
2023-03-31T21:05:10.372Z,80.83
2023-03-31T21:07:37.257Z,80.90
2023-03-31T21:10:04.960Z,80.95
2023-03-31T21:12:31.923Z,80.22
2023-03-31T21:14:59.285Z,80.15
2023-03-31T21:17:26.329Z,80.12
2023-03-31T21:19:53.294Z,80.08
2023-03-31T21:22:20.232Z,79.41
2023-03-31T21:24:47.147Z,79.72
2023-03-31T21:27:14.234Z,79.80
2023-03-31T21:29:41.258Z,79.79
2023-03-31T21:32:09.403Z,79.75
2023-03-31T21:34:36.801Z,79.51
2023-03-31T21:37:03.783Z,79.51
2023-03-31T21:39:31.013Z,79.38
2023-03-31T21:41:58.243Z,79.17
2023-03-31T21:44:25.225Z,79.35
2023-03-31T21:46:53.140Z,78.95
2023-03-31T21:49:20.199Z,79.20
2023-03-31T21:51:47.479Z,79.25
2023-03-31T21:54:14.388Z,78.93
2023-03-31T21:56:41.313Z,78.73
2023-03-31T21:59:08.935Z,78.80
2023-03-31T22:01:36.208Z,78.65
2023-03-31T22:04:03.190Z,78.47
2023-03-31T22:06:31.189Z,78.58
2023-03-31T22:08:58.125Z,78.49
2023-03-31T22:11:25.088Z,78.50
2023-03-31T22:13:52.073Z,77.90
2023-03-31T22:16:21.630Z,77.84
2023-03-31T22:18:50.495Z,77.48
2023-03-31T22:21:26.529Z,77.42
2023-03-31T22:24:01.456Z,77.68
2023-03-31T22:26:30.134Z,77.68
2023-03-31T22:28:57.841Z,77.71
2023-03-31T22:31:26.457Z,78.02
2023-03-31T22:33:53.546Z,77.82
2023-03-31T22:36:20.984Z,78.02
2023-03-31T22:38:48.068Z,78.42
2023-03-31T22:41:15.079Z,78.99
2023-03-31T22:43:44.550Z,78.76
2023-03-31T22:46:12.878Z,79.22
2023-03-31T22:48:40.780Z,79.52
2023-03-31T22:51:09.085Z,79.36
2023-03-31T22:53:36.208Z,79.54
2023-03-31T22:56:09.008Z,79.30
2023-03-31T22:58:35.935Z,79.60
2023-03-31T23:01:03.412Z,79.86
2023-03-31T23:03:31.045Z,81.00
2023-03-31T23:05:58.096Z,80.79
2023-03-31T23:08:25.241Z,81.06
2023-03-31T23:10:59.752Z,81.86
2023-03-31T23:13:27.844Z,81.97
2023-03-31T23:15:55.115Z,81.49
2023-03-31T23:18:22.716Z,82.00
2023-03-31T23:20:49.713Z,81.79
2023-03-31T23:23:16.759Z,81.63
2023-03-31T23:25:43.788Z,82.14
2023-03-31T23:28:10.756Z,82.13
2023-03-31T23:30:37.672Z,82.62
2023-03-31T23:33:04.662Z,82.60
2023-03-31T23:35:31.925Z,83.09
2023-03-31T23:37:59.053Z,83.07
2023-03-31T23:40:25.987Z,83.25
2023-03-31T23:42:52.978Z,83.56
2023-03-31T23:45:20.299Z,83.73
2023-03-31T23:47:47.287Z,84.15
2023-03-31T23:50:14.417Z,84.19
2023-03-31T23:52:41.808Z,84.08
2023-03-31T23:55:09.274Z,83.55
2023-03-31T23:57:36.316Z,83.69
